sensor_id;sensor_type;location;lat;lon;timestamp;pressure;altitude;pressure_sealevel;temperature;humidity
7058;BME280;3570;43.080;25.628;2022-10-15T00:01:16;-19864.25;;;14.11;100.00
7058;BME280;3570;43.080;25.628;2022-10-15T00:03:41;-19861.91;;;14.03;100.00
7058;BME280;3570;43.080;25.628;2022-10-15T00:06:09;-19864.97;;;14.14;100.00
7058;BME280;3570;43.080;25.628;2022-10-15T00:08:36;-19858.13;;;13.90;100.00
7058;BME280;3570;43.080;25.628;2022-10-15T00:11:28;-19864.25;;;14.11;100.00
7058;BME280;3570;43.080;25.628;2022-10-15T00:13:55;-19861.31;;;14.01;100.00
7058;BME280;3570;43.080;25.628;2022-10-15T00:16:27;-19854.34;;;13.77;100.00
7058;BME280;3570;43.080;25.628;2022-10-15T00:18:57;-19867.28;;;14.22;100.00
7058;BME280;3570;43.080;25.628;2022-10-15T00:21:24;-19859.88;;;13.96;100.00
7058;BME280;3570;43.080;25.628;2022-10-15T00:23:49;-19853.03;;;13.73;100.00
7058;BME280;3570;43.080;25.628;2022-10-15T00:26:18;-19859.44;;;13.95;100.00
7058;BME280;3570;43.080;25.628;2022-10-15T00:28:45;-19859.13;;;13.94;100.00
7058;BME280;3570;43.080;25.628;2022-10-15T00:31:15;-19850.09;;;13.63;100.00
7058;BME280;3570;43.080;25.628;2022-10-15T00:33:42;-19846.91;;;13.52;100.00
7058;BME280;3570;43.080;25.628;2022-10-15T00:36:11;-19845.00;;;13.45;100.00
7058;BME280;3570;43.080;25.628;2022-10-15T00:38:37;-19836.84;;;13.17;100.00
7058;BME280;3570;43.080;25.628;2022-10-15T00:41:05;-19835.38;;;13.12;100.00
7058;BME280;3570;43.080;25.628;2022-10-15T00:43:49;-19837.13;;;13.18;100.00
7058;BME280;3570;43.080;25.628;2022-10-15T00:49:00;-19837.56;;;13.19;100.00
7058;BME280;3570;43.080;25.628;2022-10-15T00:51:30;-19841.34;;;13.33;100.00
7058;BME280;3570;43.080;25.628;2022-10-15T00:53:58;-19841.81;;;13.34;100.00
7058;BME280;3570;43.080;25.628;2022-10-15T00:56:26;-19836.84;;;13.17;100.00
7058;BME280;3570;43.080;25.628;2022-10-15T00:58:52;-19837.44;;;13.19;100.00
7058;BME280;3570;43.080;25.628;2022-10-15T01:01:18;-19838.31;;;13.22;100.00
7058;BME280;3570;43.080;25.628;2022-10-15T01:03:44;-19837.44;;;13.19;100.00
7058;BME280;3570;43.080;25.628;2022-10-15T01:06:10;-19838.44;;;13.23;100.00
7058;BME280;3570;43.080;25.628;2022-10-15T01:08:35;-19836.13;;;13.14;100.00
7058;BME280;3570;43.080;25.628;2022-10-15T01:16:18;-19837.88;;;13.20;100.00
7058;BME280;3570;43.080;25.628;2022-10-15T01:18:59;-19843.53;;;13.40;100.00
7058;BME280;3570;43.080;25.628;2022-10-15T01:24:43;-19846.91;;;13.52;100.00
7058;BME280;3570;43.080;25.628;2022-10-15T01:30:23;-19836.13;;;13.14;100.00
7058;BME280;3570;43.080;25.628;2022-10-15T01:35:48;-19843.97;;;13.42;100.00
7058;BME280;3570;43.080;25.628;2022-10-15T01:38:33;-19847.91;;;13.55;100.00
7058;BME280;3570;43.080;25.628;2022-10-15T01:41:51;-19860.75;;;13.99;100.00
7058;BME280;3570;43.080;25.628;2022-10-15T01:44:41;-19865.69;;;14.16;100.00
7058;BME280;3570;43.080;25.628;2022-10-15T01:47:33;-19867.72;;;14.24;100.00
7058;BME280;3570;43.080;25.628;2022-10-15T01:50:21;-19865.84;;;14.17;100.00
7058;BME280;3570;43.080;25.628;2022-10-15T01:53:07;-19864.53;;;14.12;100.00
7058;BME280;3570;43.080;25.628;2022-10-15T01:55:55;-19861.03;;;14.00;100.00
7058;BME280;3570;43.080;25.628;2022-10-15T01:58:42;-19858.84;;;13.93;100.00
7058;BME280;3570;43.080;25.628;2022-10-15T02:01:28;-19864.09;;;14.11;100.00
7058;BME280;3570;43.080;25.628;2022-10-15T02:04:20;-19854.03;;;13.76;100.00
7058;BME280;3570;43.080;25.628;2022-10-15T02:07:14;-19871.97;;;14.38;100.00
7058;BME280;3570;43.080;25.628;2022-10-15T02:10:23;-19875.03;;;14.49;100.00
7058;BME280;3570;43.080;25.628;2022-10-15T02:13:31;-19877.50;;;14.57;100.00
7058;BME280;3570;43.080;25.628;2022-10-15T02:16:27;-19868.03;;;14.25;100.00
7058;BME280;3570;43.080;25.628;2022-10-15T02:22:32;-19869.47;;;14.30;100.00
7058;BME280;3570;43.080;25.628;2022-10-15T02:25:21;-19870.06;;;14.32;100.00
7058;BME280;3570;43.080;25.628;2022-10-15T02:28:07;-19866.84;;;14.21;100.00
7058;BME280;3570;43.080;25.628;2022-10-15T02:30:53;-19868.31;;;14.26;100.00
7058;BME280;3570;43.080;25.628;2022-10-15T02:33:39;-19864.97;;;14.14;100.00
7058;BME280;3570;43.080;25.628;2022-10-15T02:36:23;-19861.47;;;14.02;100.00
7058;BME280;3570;43.080;25.628;2022-10-15T02:39:13;-19860.75;;;13.99;100.00
7058;BME280;3570;43.080;25.628;2022-10-15T02:41:59;-19862.50;;;14.05;100.00
7058;BME280;3570;43.080;25.628;2022-10-15T02:44:44;-19863.06;;;14.07;100.00
7058;BME280;3570;43.080;25.628;2022-10-15T02:47:28;-19845.59;;;13.47;100.00
7058;BME280;3570;43.080;25.628;2022-10-15T02:50:12;-19838.00;;;13.21;100.00
7058;BME280;3570;43.080;25.628;2022-10-15T02:52:56;-19833.34;;;13.05;100.00
7058;BME280;3570;43.080;25.628;2022-10-15T02:55:40;-19828.09;;;12.87;100.00
7058;BME280;3570;43.080;25.628;2022-10-15T02:58:24;-19831.16;;;12.97;100.00
7058;BME280;3570;43.080;25.628;2022-10-15T03:01:08;-19837.13;;;13.18;100.00
7058;BME280;3570;43.080;25.628;2022-10-15T03:03:52;-19841.34;;;13.33;100.00
7058;BME280;3570;43.080;25.628;2022-10-15T03:06:36;-19842.25;;;13.36;100.00
7058;BME280;3570;43.080;25.628;2022-10-15T03:09:21;-19846.03;;;13.49;100.00
7058;BME280;3570;43.080;25.628;2022-10-15T03:12:05;-19842.81;;;13.38;100.00
7058;BME280;3570;43.080;25.628;2022-10-15T03:14:49;-19850.41;;;13.64;100.00
7058;BME280;3570;43.080;25.628;2022-10-15T03:17:33;-19854.63;;;13.78;100.00
7058;BME280;3570;43.080;25.628;2022-10-15T03:20:17;-19855.19;;;13.80;100.00
7058;BME280;3570;43.080;25.628;2022-10-15T03:23:01;-19851.13;;;13.66;100.00
7058;BME280;3570;43.080;25.628;2022-10-15T03:25:45;-19854.19;;;13.77;100.00
7058;BME280;3570;43.080;25.628;2022-10-15T03:28:29;-19846.75;;;13.51;100.00
7058;BME280;3570;43.080;25.628;2022-10-15T03:31:13;-19823.13;;;12.70;100.00
7058;BME280;3570;43.080;25.628;2022-10-15T03:33:57;-19818.75;;;12.55;100.00
7058;BME280;3570;43.080;25.628;2022-10-15T03:36:41;-19823.72;;;12.72;100.00
7058;BME280;3570;43.080;25.628;2022-10-15T03:39:25;-19825.03;;;12.76;100.00
7058;BME280;3570;43.080;25.628;2022-10-15T03:42:09;-19823.56;;;12.71;100.00
7058;BME280;3570;43.080;25.628;2022-10-15T03:44:53;-19831.28;;;12.98;100.00
7058;BME280;3570;43.080;25.628;2022-10-15T03:47:37;-19838.59;;;13.23;100.00
7058;BME280;3570;43.080;25.628;2022-10-15T03:50:20;-19826.78;;;12.82;100.00
7058;BME280;3570;43.080;25.628;2022-10-15T03:53:04;-19810.44;;;12.26;100.00
7058;BME280;3570;43.080;25.628;2022-10-15T03:55:48;-19804.47;;;12.05;100.00
7058;BME280;3570;43.080;25.628;2022-10-15T03:58:33;-19811.03;;;12.28;100.00
7058;BME280;3570;43.080;25.628;2022-10-15T04:01:17;-19822.69;;;12.68;100.00
7058;BME280;3570;43.080;25.628;2022-10-15T04:04:02;-19836.13;;;13.14;100.00
7058;BME280;3570;43.080;25.628;2022-10-15T04:06:46;-19833.34;;;13.05;100.00
7058;BME280;3570;43.080;25.628;2022-10-15T04:09:30;-19836.25;;;13.15;100.00
7058;BME280;3570;43.080;25.628;2022-10-15T04:12:14;-19841.34;;;13.33;100.00
7058;BME280;3570;43.080;25.628;2022-10-15T04:14:59;-19846.31;;;13.50;100.00
7058;BME280;3570;43.080;25.628;2022-10-15T04:17:43;-19845.28;;;13.46;100.00
7058;BME280;3570;43.080;25.628;2022-10-15T04:20:27;-19832.75;;;13.03;100.00
7058;BME280;3570;43.080;25.628;2022-10-15T04:23:10;-19838.59;;;13.23;100.00
7058;BME280;3570;43.080;25.628;2022-10-15T04:25:58;-19841.81;;;13.34;100.00
7058;BME280;3570;43.080;25.628;2022-10-15T04:28:43;-19844.41;;;13.43;100.00
7058;BME280;3570;43.080;25.628;2022-10-15T04:31:27;-19843.41;;;13.40;100.00
7058;BME280;3570;43.080;25.628;2022-10-15T04:34:11;-19837.13;;;13.18;100.00
7058;BME280;3570;43.080;25.628;2022-10-15T04:36:55;-19841.50;;;13.33;100.00
7058;BME280;3570;43.080;25.628;2022-10-15T04:39:39;-19835.53;;;13.12;100.00
7058;BME280;3570;43.080;25.628;2022-10-15T04:42:23;-19839.31;;;13.26;100.00
7058;BME280;3570;43.080;25.628;2022-10-15T04:45:08;-19837.44;;;13.19;100.00
7058;BME280;3570;43.080;25.628;2022-10-15T04:47:52;-19831.88;;;13.00;100.00
7058;BME280;3570;43.080;25.628;2022-10-15T04:50:36;-19833.34;;;13.05;100.00
7058;BME280;3570;43.080;25.628;2022-10-15T04:53:20;-19828.53;;;12.88;100.00
7058;BME280;3570;43.080;25.628;2022-10-15T04:56:07;-19827.78;;;12.86;100.00
7058;BME280;3570;43.080;25.628;2022-10-15T04:58:51;-19830.13;;;12.94;100.00
7058;BME280;3570;43.080;25.628;2022-10-15T05:01:35;-19829.25;;;12.91;100.00
7058;BME280;3570;43.080;25.628;2022-10-15T05:04:19;-19831.00;;;12.97;100.00
7058;BME280;3570;43.080;25.628;2022-10-15T05:07:03;-19832.16;;;13.01;100.00
7058;BME280;3570;43.080;25.628;2022-10-15T05:09:47;-19833.78;;;13.06;100.00
7058;BME280;3570;43.080;25.628;2022-10-15T05:12:31;-19837.72;;;13.20;100.00
7058;BME280;3570;43.080;25.628;2022-10-15T05:15:15;-19832.16;;;13.01;100.00
7058;BME280;3570;43.080;25.628;2022-10-15T05:17:59;-19842.66;;;13.37;100.00
7058;BME280;3570;43.080;25.628;2022-10-15T05:20:43;-19844.13;;;13.42;100.00
7058;BME280;3570;43.080;25.628;2022-10-15T05:23:27;-19833.34;;;13.05;100.00
7058;BME280;3570;43.080;25.628;2022-10-15T05:26:14;-19844.13;;;13.42;100.00
7058;BME280;3570;43.080;25.628;2022-10-15T05:28:59;-19839.47;;;13.26;100.00
7058;BME280;3570;43.080;25.628;2022-10-15T05:31:43;-19826.03;;;12.80;100.00
7058;BME280;3570;43.080;25.628;2022-10-15T05:34:27;-19821.09;;;12.63;100.00
7058;BME280;3570;43.080;25.628;2022-10-15T05:37:13;-19816.28;;;12.46;100.00
7058;BME280;3570;43.080;25.628;2022-10-15T05:39:57;-19827.22;;;12.84;100.00
7058;BME280;3570;43.080;25.628;2022-10-15T05:42:41;-19832.16;;;13.01;100.00
7058;BME280;3570;43.080;25.628;2022-10-15T05:45:25;-19839.75;;;13.27;100.00
7058;BME280;3570;43.080;25.628;2022-10-15T05:48:10;-19836.13;;;13.14;100.00
7058;BME280;3570;43.080;25.628;2022-10-15T05:51:03;-19843.25;;;13.39;100.00
7058;BME280;3570;43.080;25.628;2022-10-15T05:53:50;-19849.22;;;13.60;100.00
7058;BME280;3570;43.080;25.628;2022-10-15T05:56:35;-19849.81;;;13.62;100.00
7058;BME280;3570;43.080;25.628;2022-10-15T05:59:19;-19848.50;;;13.57;100.00
7058;BME280;3570;43.080;25.628;2022-10-15T06:02:03;-19850.97;;;13.66;100.00
7058;BME280;3570;43.080;25.628;2022-10-15T06:04:47;-19855.34;;;13.81;100.00
7058;BME280;3570;43.080;25.628;2022-10-15T06:07:31;-19856.81;;;13.86;100.00
7058;BME280;3570;43.080;25.628;2022-10-15T06:10:16;-19862.50;;;14.05;100.00
7058;BME280;3570;43.080;25.628;2022-10-15T06:13:00;-19865.09;;;14.14;100.00
7058;BME280;3570;43.080;25.628;2022-10-15T06:15:44;-19862.50;;;14.05;100.00
7058;BME280;3570;43.080;25.628;2022-10-15T06:18:28;-19841.34;;;13.33;100.00
7058;BME280;3570;43.080;25.628;2022-10-15T06:21:13;-19858.41;;;13.91;100.00
7058;BME280;3570;43.080;25.628;2022-10-15T06:23:57;-19857.09;;;13.87;100.00
7058;BME280;3570;43.080;25.628;2022-10-15T06:26:41;-19858.41;;;13.91;100.00
7058;BME280;3570;43.080;25.628;2022-10-15T06:29:25;-19848.78;;;13.58;100.00
7058;BME280;3570;43.080;25.628;2022-10-15T06:32:10;-19855.63;;;13.82;100.00
7058;BME280;3570;43.080;25.628;2022-10-15T06:34:54;-19842.53;;;13.37;100.00
7058;BME280;3570;43.080;25.628;2022-10-15T06:37:38;-19863.78;;;14.10;100.00
7058;BME280;3570;43.080;25.628;2022-10-15T06:40:22;-19870.34;;;14.33;100.00
7058;BME280;3570;43.080;25.628;2022-10-15T06:43:08;-19863.94;;;14.10;100.00
7058;BME280;3570;43.080;25.628;2022-10-15T06:45:52;-19868.31;;;14.26;100.00
7058;BME280;3570;43.080;25.628;2022-10-15T06:48:37;-19877.34;;;14.57;100.00
7058;BME280;3570;43.080;25.628;2022-10-15T06:51:21;-19867.28;;;14.22;100.00
7058;BME280;3570;43.080;25.628;2022-10-15T06:54:05;-19880.84;;;14.69;100.00
7058;BME280;3570;43.080;25.628;2022-10-15T06:56:48;-19886.66;;;14.89;100.00
7058;BME280;3570;43.080;25.628;2022-10-15T06:59:32;-19886.66;;;14.89;100.00
7058;BME280;3570;43.080;25.628;2022-10-15T07:02:16;-19890.03;;;15.00;100.00
7058;BME280;3570;43.080;25.628;2022-10-15T07:05:02;-19864.09;;;14.11;100.00
7058;BME280;3570;43.080;25.628;2022-10-15T07:07:53;-19859.56;;;13.95;100.00
7058;BME280;3570;43.080;25.628;2022-10-15T07:10:38;-19877.06;;;14.56;100.00
7058;BME280;3570;43.080;25.628;2022-10-15T07:13:22;-19880.84;;;14.69;100.00
7058;BME280;3570;43.080;25.628;2022-10-15T07:16:08;-19877.34;;;14.57;100.00
7058;BME280;3570;43.080;25.628;2022-10-15T07:18:52;-19881.00;;;14.69;100.00
7058;BME280;3570;43.080;25.628;2022-10-15T07:21:36;-19894.25;;;15.15;100.00
7058;BME280;3570;43.080;25.628;2022-10-15T07:24:20;-19897.16;;;15.25;100.00
7058;BME280;3570;43.080;25.628;2022-10-15T07:27:04;-19891.47;;;15.05;100.00
7058;BME280;3570;43.080;25.628;2022-10-15T07:29:48;-19894.53;;;15.16;100.00
7058;BME280;3570;43.080;25.628;2022-10-15T07:32:33;-19897.28;;;15.26;100.00
7058;BME280;3570;43.080;25.628;2022-10-15T07:35:17;-19910.09;;;15.70;100.00
7058;BME280;3570;43.080;25.628;2022-10-15T07:38:01;-19901.66;;;15.41;100.00
7058;BME280;3570;43.080;25.628;2022-10-15T07:40:45;-19903.13;;;15.46;100.00
7058;BME280;3570;43.080;25.628;2022-10-15T07:43:30;-19905.59;;;15.54;100.00
7058;BME280;3570;43.080;25.628;2022-10-15T07:46:14;-19906.19;;;15.56;100.00
7058;BME280;3570;43.080;25.628;2022-10-15T07:48:59;-19904.13;;;15.49;100.00
7058;BME280;3570;43.080;25.628;2022-10-15T07:51:42;-19893.81;;;15.14;100.00
7058;BME280;3570;43.080;25.628;2022-10-15T07:54:26;-19885.22;;;14.84;100.00
7058;BME280;3570;43.080;25.628;2022-10-15T07:57:10;-19885.94;;;14.86;100.00
7058;BME280;3570;43.080;25.628;2022-10-15T07:59:54;-19888.13;;;14.94;100.00
7058;BME280;3570;43.080;25.628;2022-10-15T08:02:39;-19884.63;;;14.82;100.00
7058;BME280;3570;43.080;25.628;2022-10-15T08:05:23;-19893.06;;;15.11;100.00
7058;BME280;3570;43.080;25.628;2022-10-15T08:08:07;-19892.94;;;15.10;100.00
7058;BME280;3570;43.080;25.628;2022-10-15T08:10:51;-19900.34;;;15.36;100.00
7058;BME280;3570;43.080;25.628;2022-10-15T08:13:35;-19907.50;;;15.61;100.00
7058;BME280;3570;43.080;25.628;2022-10-15T08:16:24;-19908.34;;;15.64;100.00
7058;BME280;3570;43.080;25.628;2022-10-15T08:19:08;-19910.25;;;15.70;100.00
7058;BME280;3570;43.080;25.628;2022-10-15T08:21:53;-19912.00;;;15.76;100.00
7058;BME280;3570;43.080;25.628;2022-10-15T08:24:37;-19908.34;;;15.64;100.00
7058;BME280;3570;43.080;25.628;2022-10-15T08:27:21;-19917.53;;;15.95;100.00
7058;BME280;3570;43.080;25.628;2022-10-15T08:30:06;-19918.69;;;15.99;100.00
7058;BME280;3570;43.080;25.628;2022-10-15T08:32:50;-19920.72;;;16.07;100.00
7058;BME280;3570;43.080;25.628;2022-10-15T08:35:34;-19911.84;;;15.76;100.00
7058;BME280;3570;43.080;25.628;2022-10-15T08:38:21;-19918.09;;;15.97;100.00
7058;BME280;3570;43.080;25.628;2022-10-15T08:41:33;-19916.94;;;15.93;100.00
7058;BME280;3570;43.080;25.628;2022-10-15T08:44:28;-19919.13;;;16.01;100.00
7058;BME280;3570;43.080;25.628;2022-10-15T08:47:39;-19920.00;;;16.04;100.00
7058;BME280;3570;43.080;25.628;2022-10-15T08:53:19;-19923.63;;;16.17;100.00
7058;BME280;3570;43.080;25.628;2022-10-15T08:56:14;-19927.41;;;16.30;100.00
7058;BME280;3570;43.080;25.628;2022-10-15T09:04:59;-19930.31;;;16.40;100.00
7058;BME280;3570;43.080;25.628;2022-10-15T09:11:02;-19928.88;;;16.35;100.00
7058;BME280;3570;43.080;25.628;2022-10-15T09:13:48;-19923.78;;;16.17;100.00
7058;BME280;3570;43.080;25.628;2022-10-15T09:16:36;-19925.66;;;16.24;100.00
7058;BME280;3570;43.080;25.628;2022-10-15T09:19:22;-19938.19;;;16.67;99.05
7058;BME280;3570;43.080;25.628;2022-10-15T09:22:11;-19944.44;;;16.88;96.43
7058;BME280;3570;43.080;25.628;2022-10-15T09:24:57;-19946.59;;;16.96;95.76
7058;BME280;3570;43.080;25.628;2022-10-15T09:27:45;-19945.16;;;16.91;94.10
7058;BME280;3570;43.080;25.628;2022-10-15T09:33:48;-19945.88;;;16.93;95.66
7058;BME280;3570;43.080;25.628;2022-10-15T09:36:53;-19940.50;;;16.75;97.01
7058;BME280;3570;43.080;25.628;2022-10-15T09:42:38;-19945.72;;;16.93;94.85
7058;BME280;3570;43.080;25.628;2022-10-15T09:45:24;-19948.94;;;17.04;94.12
7058;BME280;3570;43.080;25.628;2022-10-15T09:48:18;-19947.78;;;17.00;94.60
7058;BME280;3570;43.080;25.628;2022-10-15T09:51:06;-19952.13;;;17.15;93.02
7058;BME280;3570;43.080;25.628;2022-10-15T09:56:42;-19949.50;;;17.06;93.20
7058;BME280;3570;43.080;25.628;2022-10-15T09:59:15;-19951.97;;;17.15;93.19
7058;BME280;3570;43.080;25.628;2022-10-15T10:01:59;-19943.25;;;16.84;91.84
7058;BME280;3570;43.080;25.628;2022-10-15T10:04:30;-19930.03;;;16.39;93.65
7058;BME280;3570;43.080;25.628;2022-10-15T10:07:01;-19929.16;;;16.36;96.75
7058;BME280;3570;43.080;25.628;2022-10-15T10:09:35;-19933.22;;;16.50;96.46
7058;BME280;3570;43.080;25.628;2022-10-15T10:12:07;-19939.91;;;16.73;92.34
7058;BME280;3570;43.080;25.628;2022-10-15T10:14:55;-19944.56;;;16.89;94.07
7058;BME280;3570;43.080;25.628;2022-10-15T10:17:26;-19934.69;;;16.55;93.64
7058;BME280;3570;43.080;25.628;2022-10-15T10:20:13;-19928.00;;;16.32;93.19
7058;BME280;3570;43.080;25.628;2022-10-15T10:22:43;-19930.75;;;16.41;94.16
7058;BME280;3570;43.080;25.628;2022-10-15T10:27:53;-19920.28;;;16.05;96.90
7058;BME280;3570;43.080;25.628;2022-10-15T10:30:19;-19919.13;;;16.01;95.71
7058;BME280;3570;43.080;25.628;2022-10-15T10:32:45;-19924.94;;;16.21;95.97
7058;BME280;3570;43.080;25.628;2022-10-15T10:35:28;-19927.69;;;16.31;95.83
7058;BME280;3570;43.080;25.628;2022-10-15T10:37:55;-19934.53;;;16.54;94.67
7058;BME280;3570;43.080;25.628;2022-10-15T10:40:26;-19940.50;;;16.75;92.97
7058;BME280;3570;43.080;25.628;2022-10-15T10:45:51;-19950.69;;;17.10;92.06
7058;BME280;3570;43.080;25.628;2022-10-15T10:48:20;-19945.44;;;16.92;91.99
7058;BME280;3570;43.080;25.628;2022-10-15T10:50:46;-19949.06;;;17.05;89.89
7058;BME280;3570;43.080;25.628;2022-10-15T10:53:23;-19967.25;;;17.67;88.40
7058;BME280;3570;43.080;25.628;2022-10-15T10:55:51;-19962.75;;;17.52;87.24
7058;BME280;3570;43.080;25.628;2022-10-15T10:58:19;-19999.78;;;18.80;83.41
7058;BME280;3570;43.080;25.628;2022-10-15T11:00:47;-20033.41;;;19.97;77.71
7058;BME280;3570;43.080;25.628;2022-10-15T11:06:46;-20071.53;;;21.29;65.08
7058;BME280;3570;43.080;25.628;2022-10-15T11:22:06;-20101.94;;;22.34;61.50
7058;BME280;3570;43.080;25.628;2022-10-15T11:24:41;-20143.44;;;23.79;52.03
7058;BME280;3570;43.080;25.628;2022-10-15T11:30:18;-20244.41;;;27.31;41.01
7058;BME280;3570;43.080;25.628;2022-10-15T11:38:27;-20221.34;;;26.50;40.49
7058;BME280;3570;43.080;25.628;2022-10-15T11:41:24;-20215.28;;;26.29;41.12
7058;BME280;3570;43.080;25.628;2022-10-15T11:55:08;-20274.47;;;28.36;36.67
7058;BME280;3570;43.080;25.628;2022-10-15T11:57:37;-20271.47;;;28.25;36.99
7058;BME280;3570;43.080;25.628;2022-10-15T12:02:42;-20253.91;;;27.64;38.36
7058;BME280;3570;43.080;25.628;2022-10-15T12:05:18;-20267.44;;;28.11;36.76
7058;BME280;3570;43.080;25.628;2022-10-15T12:07:48;-20304.38;;;29.40;35.39
7058;BME280;3570;43.080;25.628;2022-10-15T12:10:50;-20319.47;;;29.93;33.14
7058;BME280;3570;43.080;25.628;2022-10-15T12:13:35;-20307.97;;;29.53;33.85
7058;BME280;3570;43.080;25.628;2022-10-15T12:18:39;-20251.16;;;27.54;38.15
7058;BME280;3570;43.080;25.628;2022-10-15T12:21:38;-20269.00;;;28.17;36.95
7058;BME280;3570;43.080;25.628;2022-10-15T12:27:34;-20309.69;;;29.59;34.39
7058;BME280;3570;43.080;25.628;2022-10-15T12:32:39;-20322.63;;;30.04;33.29
7058;BME280;3570;43.080;25.628;2022-10-15T12:35:18;-20284.13;;;28.69;34.99
7058;BME280;3570;43.080;25.628;2022-10-15T12:37:46;-20280.66;;;28.57;35.18
7058;BME280;3570;43.080;25.628;2022-10-15T12:40:27;-20340.84;;;30.68;32.65
7058;BME280;3570;43.080;25.628;2022-10-15T12:43:00;-20356.91;;;31.24;31.41
7058;BME280;3570;43.080;25.628;2022-10-15T12:45:35;-20322.34;;;30.03;32.69
7058;BME280;3570;43.080;25.628;2022-10-15T12:50:34;-20378.13;;;31.99;29.84
7058;BME280;3570;43.080;25.628;2022-10-15T12:56:23;-20337.56;;;30.56;31.62
7058;BME280;3570;43.080;25.628;2022-10-15T12:58:51;-20250.31;;;27.51;35.52
7058;BME280;3570;43.080;25.628;2022-10-15T13:08:46;-20164.50;;;24.52;44.15
7058;BME280;3570;43.080;25.628;2022-10-15T13:11:41;-20252.59;;;27.59;38.45
7058;BME280;3570;43.080;25.628;2022-10-15T13:17:04;-20281.38;;;28.60;33.83
7058;BME280;3570;43.080;25.628;2022-10-15T13:19:37;-20315.72;;;29.80;32.61
7058;BME280;3570;43.080;25.628;2022-10-15T13:22:05;-20322.03;;;30.02;32.15
7058;BME280;3570;43.080;25.628;2022-10-15T13:24:40;-20227.56;;;26.72;36.95
7058;BME280;3570;43.080;25.628;2022-10-15T13:27:14;-20227.84;;;26.73;37.28
7058;BME280;3570;43.080;25.628;2022-10-15T13:29:52;-20195.41;;;25.60;38.44
7058;BME280;3570;43.080;25.628;2022-10-15T13:32:19;-20156.72;;;24.25;42.67
7058;BME280;3570;43.080;25.628;2022-10-15T13:34:45;-20145.44;;;23.86;45.20
7058;BME280;3570;43.080;25.628;2022-10-15T13:37:16;-20139.53;;;23.65;45.17
7058;BME280;3570;43.080;25.628;2022-10-15T13:39:58;-20115.09;;;22.80;47.21
7058;BME280;3570;43.080;25.628;2022-10-15T13:42:25;-20101.78;;;22.34;47.35
7058;BME280;3570;43.080;25.628;2022-10-15T13:45:04;-20097.75;;;22.20;51.38
7058;BME280;3570;43.080;25.628;2022-10-15T13:47:47;-20093.09;;;22.04;51.73
7058;BME280;3570;43.080;25.628;2022-10-15T13:55:34;-20055.44;;;20.73;55.16
7058;BME280;3570;43.080;25.628;2022-10-15T14:00:54;-20062.97;;;20.99;56.77
7058;BME280;3570;43.080;25.628;2022-10-15T14:03:31;-20051.69;;;20.60;58.00
7058;BME280;3570;43.080;25.628;2022-10-15T14:08:39;-20029.66;;;19.84;60.44
7058;BME280;3570;43.080;25.628;2022-10-15T14:11:04;-20004.56;;;18.97;61.85
7058;BME280;3570;43.080;25.628;2022-10-15T14:13:30;-19995.84;;;18.66;64.25
7058;BME280;3570;43.080;25.628;2022-10-15T14:16:11;-19989.31;;;18.44;70.13
7058;BME280;3570;43.080;25.628;2022-10-15T14:18:42;-19988.00;;;18.39;68.69
7058;BME280;3570;43.080;25.628;2022-10-15T14:21:12;-19995.84;;;18.66;68.46
7058;BME280;3570;43.080;25.628;2022-10-15T14:23:40;-19979.16;;;18.09;67.74
7058;BME280;3570;43.080;25.628;2022-10-15T14:26:07;-19959.25;;;17.40;70.81
7058;BME280;3570;43.080;25.628;2022-10-15T14:28:35;-19941.97;;;16.80;73.88
7058;BME280;3570;43.080;25.628;2022-10-15T14:31:03;-19935.28;;;16.57;77.52
7058;BME280;3570;43.080;25.628;2022-10-15T14:33:40;-19944.00;;;16.87;78.96
7058;BME280;3570;43.080;25.628;2022-10-15T14:36:23;-19956.63;;;17.31;75.95
7058;BME280;3570;43.080;25.628;2022-10-15T14:38:50;-19955.63;;;17.27;75.00
7058;BME280;3570;43.080;25.628;2022-10-15T14:45:09;-19965.22;;;17.60;75.67
7058;BME280;3570;43.080;25.628;2022-10-15T14:47:00;-19950.38;;;17.09;74.83
7058;BME280;3570;43.080;25.628;2022-10-15T14:49:30;-19947.78;;;17.00;75.93
7058;BME280;3570;43.080;25.628;2022-10-15T14:52:03;-19933.22;;;16.50;77.56
7058;BME280;3570;43.080;25.628;2022-10-15T14:54:35;-19931.78;;;16.45;77.49
7058;BME280;3570;43.080;25.628;2022-10-15T14:57:03;-19928.56;;;16.34;79.60
7058;BME280;3570;43.080;25.628;2022-10-15T14:59:31;-19926.41;;;16.26;79.75
7058;BME280;3570;43.080;25.628;2022-10-15T15:01:59;-19919.84;;;16.03;80.73
7058;BME280;3570;43.080;25.628;2022-10-15T15:04:38;-19923.91;;;16.18;81.33
7058;BME280;3570;43.080;25.628;2022-10-15T15:07:12;-19923.03;;;16.15;81.14
7058;BME280;3570;43.080;25.628;2022-10-15T15:09:38;-19933.66;;;16.51;82.69
7058;BME280;3570;43.080;25.628;2022-10-15T15:12:05;-19938.91;;;16.69;80.51
7058;BME280;3570;43.080;25.628;2022-10-15T15:14:31;-19947.78;;;17.00;80.64
7058;BME280;3570;43.080;25.628;2022-10-15T15:16:57;-19946.47;;;16.96;78.00
7058;BME280;3570;43.080;25.628;2022-10-15T15:19:22;-19945.88;;;16.93;80.80
7058;BME280;3570;43.080;25.628;2022-10-15T15:21:48;-19949.66;;;17.07;77.78
7058;BME280;3570;43.080;25.628;2022-10-15T15:24:13;-19938.63;;;16.68;77.89
7058;BME280;3570;43.080;25.628;2022-10-15T15:26:39;-19930.31;;;16.40;79.77
7058;BME280;3570;43.080;25.628;2022-10-15T15:29:11;-19922.75;;;16.14;82.24
7058;BME280;3570;43.080;25.628;2022-10-15T15:31:37;-19927.69;;;16.31;84.12
7058;BME280;3570;43.080;25.628;2022-10-15T15:34:03;-19925.97;;;16.25;81.34
7058;BME280;3570;43.080;25.628;2022-10-15T15:36:28;-19940.22;;;16.74;83.22
7058;BME280;3570;43.080;25.628;2022-10-15T15:38:54;-19951.25;;;17.12;81.39
7058;BME280;3570;43.080;25.628;2022-10-15T15:41:22;-19955.91;;;17.28;80.89
7058;BME280;3570;43.080;25.628;2022-10-15T15:43:51;-19947.63;;;17.00;80.09
7058;BME280;3570;43.080;25.628;2022-10-15T15:46:16;-19964.91;;;17.59;79.55
7058;BME280;3570;43.080;25.628;2022-10-15T15:48:42;-19963.47;;;17.54;79.25
7058;BME280;3570;43.080;25.628;2022-10-15T15:51:20;-19958.81;;;17.38;79.58
7058;BME280;3570;43.080;25.628;2022-10-15T15:53:47;-19962.31;;;17.50;79.36
7058;BME280;3570;43.080;25.628;2022-10-15T15:56:13;-19963.19;;;17.53;80.19
7058;BME280;3570;43.080;25.628;2022-10-15T15:58:38;-19961.72;;;17.48;80.55
7058;BME280;3570;43.080;25.628;2022-10-15T16:01:04;-19957.94;;;17.35;77.94
7058;BME280;3570;43.080;25.628;2022-10-15T16:03:30;-19953.28;;;17.19;81.65